Time;durP1;ratioP1;P1;durP2;ratioP2;P2;SDS_P1;SDS_P2;PMS_P1;PMS_P2;Temp;Humidity;BMP_temperature;BMP_pressure;BME280_temperature;BME280_humidity;BME280_pressure;Samples;Min_cycle;Max_cycle;Signal;HPM_P1;HPM_P2
2021/12/02 00:01:27;;;;;;;4.28;0.77;;;;;;;5.32;97.30;98250.78;5198660;28;20034;-81
2021/12/02 00:03:57;;;;;;;2.22;0.65;;;;;;;5.33;96.22;98247.28;5201195;28;20029;-81
2021/12/02 00:06:28;;;;;;;2.33;0.60;;;;;;;5.34;96.04;98251.53;5199355;28;20054;-81
2021/12/02 00:08:58;;;;;;;2.67;0.60;;;;;;;5.36;95.64;98256.66;5199897;28;20257;-81
2021/12/02 00:11:29;;;;;;;4.55;0.77;;;;;;;5.34;95.22;98258.47;5199539;28;20036;-81
2021/12/02 00:14:07;;;;;;;4.65;0.60;;;;;;;5.36;94.99;98274.78;5191961;28;20022;-80
2021/12/02 00:16:52;;;;;;;2.67;0.47;;;;;;;5.35;94.94;98271.31;5205288;28;20055;-81
2021/12/02 00:22:12;;;;;;;2.92;0.63;;;;;;;5.32;95.14;98281.84;5199401;28;20033;-81
2021/12/02 00:24:48;;;;;;;1.77;0.50;;;;;;;5.28;95.64;98275.16;5205478;28;20037;-81
2021/12/02 00:27:19;;;;;;;3.35;0.68;;;;;;;5.26;95.72;98269.22;5202323;28;20502;-79
2021/12/02 00:29:54;;;;;;;2.63;0.60;;;;;;;5.29;94.75;98282.00;5202281;28;20033;-80
2021/12/02 00:32:26;;;;;;;;;;;;;;;5.30;95.43;98293.22;5205605;28;20026;-80
2021/12/02 00:34:57;;;;;;;6.75;0.80;;;;;;;5.26;95.43;98300.28;5193748;28;19921;-80
2021/12/02 00:37:27;;;;;;;3.80;0.50;;;;;;;5.26;97.03;98308.06;5201193;28;20026;-81
2021/12/02 00:39:59;;;;;;;1.38;0.57;;;;;;;5.27;96.91;98314.91;5182298;28;20098;-80
2021/12/02 00:42:29;;;;;;;4.43;0.68;;;;;;;5.13;96.73;98301.00;5195074;28;20029;-81
2021/12/02 00:45:00;;;;;;;4.50;0.60;;;;;;;5.06;95.48;98316.00;5202807;28;20123;-80
2021/12/02 00:47:33;;;;;;;4.22;0.90;;;;;;;5.04;96.06;98319.56;5180296;28;20028;-81
2021/12/02 00:50:04;;;;;;;2.45;0.60;;;;;;;4.98;96.08;98318.09;5200707;28;20071;-80
2021/12/02 00:52:35;;;;;;;2.38;0.55;;;;;;;4.92;96.59;98331.34;5198326;28;20047;-81
2021/12/02 00:55:07;;;;;;;4.65;0.55;;;;;;;4.81;97.93;98346.56;5179210;28;20056;-80
2021/12/02 00:57:39;;;;;;;3.58;0.47;;;;;;;4.75;98.93;98349.44;5180688;28;20037;-81
2021/12/02 01:00:10;;;;;;;2.30;0.57;;;;;;;4.68;99.44;98339.47;5192066;28;20041;-81
2021/12/02 01:02:42;;;;;;;3.45;0.73;;;;;;;4.72;98.98;98347.00;5199828;28;20029;-80
2021/12/02 01:05:12;;;;;;;3.55;0.57;;;;;;;4.72;99.03;98362.53;5203911;28;20021;-81
2021/12/02 01:07:43;;;;;;;2.35;0.60;;;;;;;4.75;99.16;98369.28;5202514;28;20075;-81
2021/12/02 01:10:13;;;;;;;6.70;0.90;;;;;;;4.71;99.24;98371.19;5195233;28;20029;-81
2021/12/02 01:12:44;;;;;;;2.25;0.57;;;;;;;4.72;100.00;98385.81;5190783;28;20056;-80
2021/12/02 01:15:15;;;;;;;3.40;0.60;;;;;;;4.74;100.00;98375.38;5195595;28;20033;-81
2021/12/02 01:17:45;;;;;;;2.85;0.75;;;;;;;4.68;100.00;98380.84;5214046;28;20479;-80
2021/12/02 01:20:16;;;;;;;3.78;0.60;;;;;;;4.71;100.00;98383.28;5194975;28;20034;-81
2021/12/02 01:22:48;;;;;;;6.72;0.73;;;;;;;4.72;100.00;98383.22;5189773;28;20026;-81
2021/12/02 01:25:19;;;;;;;2.38;0.40;;;;;;;4.64;100.00;98384.50;5188432;28;20041;-81
2021/12/02 01:27:49;;;;;;;3.25;0.63;;;;;;;4.75;100.00;98389.97;5195204;28;20034;-81
2021/12/02 01:30:20;;;;;;;6.60;0.60;;;;;;;4.71;100.00;98394.47;5194171;28;20045;-80
2021/12/02 01:32:50;;;;;;;3.20;0.68;;;;;;;4.52;100.00;98405.75;5200113;28;20080;-81
2021/12/02 01:35:23;;;;;;;1.98;0.40;;;;;;;4.49;100.00;98411.06;5193150;28;20021;-81
2021/12/02 01:41:20;;;;;;;1.52;0.55;;;;;;;4.41;100.00;98408.81;5199508;28;20037;-81
2021/12/02 01:43:54;;;;;;;2.25;0.50;;;;;;;4.44;100.00;98407.84;5198906;28;20026;-81
2021/12/02 01:46:25;;;;;;;4.07;0.52;;;;;;;4.44;100.00;98407.84;5191982;28;20021;-80
2021/12/02 01:49:06;;;;;;;7.45;1.10;;;;;;;4.46;100.00;98417.19;5192607;28;20081;-81
2021/12/02 01:55:07;;;;;;;3.93;0.43;;;;;;;4.52;100.00;98421.25;5202940;28;20391;-80
2021/12/02 01:57:47;;;;;;;5.45;0.43;;;;;;;4.48;100.00;98423.13;5159780;28;20289;-80
2021/12/02 02:00:20;;;;;;;6.32;0.63;;;;;;;4.52;100.00;98426.44;5188512;28;20044;-80
2021/12/02 02:02:50;;;;;;;3.72;0.77;;;;;;;4.51;100.00;98424.75;5188466;28;20032;-80
2021/12/02 02:05:21;;;;;;;5.68;1.02;;;;;;;4.55;100.00;98428.88;5193067;28;20394;-80
2021/12/02 02:08:05;;;;;;;2.70;0.60;;;;;;;4.54;100.00;98433.22;5195928;28;20114;-80
2021/12/02 02:10:39;;;;;;;4.90;0.80;;;;;;;4.57;100.00;98435.66;5184393;28;20034;-80
2021/12/02 02:13:11;;;;;;;4.93;0.60;;;;;;;4.62;100.00;98432.88;5178217;28;20021;-80
2021/12/02 02:15:46;;;;;;;6.82;1.00;;;;;;;4.59;100.00;98439.00;5186398;28;20021;-80
2021/12/02 02:20:53;;;;;;;4.88;0.90;;;;;;;4.64;99.10;98441.41;5195997;28;20041;-80
2021/12/02 02:23:26;;;;;;;4.53;0.65;;;;;;;4.64;99.46;98451.75;5182782;28;20029;-80
2021/12/02 02:25:57;;;;;;;3.90;0.63;;;;;;;4.68;98.87;98456.72;5196698;28;20099;-80
2021/12/02 02:28:29;;;;;;;4.07;0.90;;;;;;;4.64;99.06;98451.75;5196194;28;20017;-80
2021/12/02 02:30:59;;;;;;;4.47;0.70;;;;;;;4.66;99.10;98450.75;5192162;28;20479;-80
2021/12/02 02:33:36;;;;;;;5.60;0.70;;;;;;;4.71;99.60;98458.28;5178545;28;20025;-80
2021/12/02 02:36:08;;;;;;;6.38;0.50;;;;;;;4.66;99.65;98460.25;5179782;28;20022;-80
2021/12/02 02:38:38;;;;;;;5.53;0.80;;;;;;;4.63;100.00;98470.75;5186254;28;20037;-80
2021/12/02 02:41:10;;;;;;;6.20;0.80;;;;;;;4.71;100.00;98464.31;5184485;28;20026;-80
2021/12/02 02:43:48;;;;;;;4.45;1.00;;;;;;;4.56;100.00;98475.34;5185251;28;20454;-80
2021/12/02 02:46:44;;;;;;;5.93;0.85;;;;;;;4.55;100.00;98467.66;5182423;28;20247;-80
2021/12/02 02:49:15;;;;;;;4.55;1.02;;;;;;;4.51;100.00;98477.31;5176222;28;20027;-80
2021/12/02 02:51:46;;;;;;;4.18;0.65;;;;;;;4.37;100.00;98473.66;5195536;28;20395;-79
2021/12/02 02:54:17;;;;;;;7.88;0.90;;;;;;;4.28;100.00;98474.91;5194004;28;20460;-80
2021/12/02 02:56:57;;;;;;;7.80;1.08;;;;;;;4.27;100.00;98482.75;5194793;28;20044;-80
2021/12/02 03:02:12;;;;;;;4.03;0.73;;;;;;;4.14;100.00;98477.25;5184060;28;20160;-80
2021/12/02 03:07:25;;;;;;;2.33;0.57;;;;;;;3.96;100.00;98483.22;5195670;28;20025;-80
2021/12/02 03:10:05;;;;;;;3.45;0.93;;;;;;;3.92;100.00;98484.25;5185685;28;20044;-80
2021/12/02 03:18:13;;;;;;;6.13;1.00;;;;;;;4.11;100.00;98487.72;5201423;28;20036;-80
2021/12/02 03:20:43;;;;;;;4.68;0.82;;;;;;;4.10;100.00;98480.88;5189852;28;20025;-80
2021/12/02 03:23:14;;;;;;;9.68;0.90;;;;;;;4.15;99.46;98484.09;5184201;28;20064;-80
2021/12/02 03:25:44;;;;;;;4.60;0.98;;;;;;;4.17;98.73;98484.03;5194721;28;20443;-80
2021/12/02 03:28:14;;;;;;;6.55;1.10;;;;;;;4.19;98.40;98501.16;5187790;28;20506;-80
2021/12/02 03:30:45;;;;;;;3.35;0.50;;;;;;;4.21;98.84;98496.75;5185029;28;20029;-80
2021/12/02 03:33:15;;;;;;;4.10;0.70;;;;;;;4.09;98.55;98492.13;5195784;28;20025;-80
2021/12/02 03:35:45;;;;;;;6.72;1.15;;;;;;;4.09;98.48;98494.69;5192960;28;20033;-80
2021/12/02 03:38:16;;;;;;;3.70;0.70;;;;;;;4.09;98.18;98496.47;5192581;28;20460;-80
2021/12/02 03:40:46;;;;;;;6.15;0.80;;;;;;;4.12;98.02;98494.56;5194658;28;20101;-79
2021/12/02 03:43:16;;;;;;;5.82;0.90;;;;;;;4.05;97.10;98498.31;5186579;28;20029;-82
2021/12/02 03:45:47;;;;;;;6.75;1.00;;;;;;;4.05;97.39;98497.47;5186062;28;20045;-82
2021/12/02 03:48:17;;;;;;;4.03;0.68;;;;;;;4.09;97.53;98501.63;5179314;28;20540;-82
2021/12/02 03:50:47;;;;;;;4.35;0.70;;;;;;;4.06;97.41;98502.59;5182410;28;20034;-82
2021/12/02 03:53:18;;;;;;;2.92;0.70;;;;;;;3.93;98.29;98501.44;5191120;28;20022;-80
2021/12/02 03:55:48;;;;;;;7.00;0.90;;;;;;;3.89;98.14;98509.38;5184081;28;20033;-81
2021/12/02 03:58:18;;;;;;;13.98;1.08;;;;;;;3.95;98.02;98504.78;5189907;28;20018;-79
2021/12/02 04:00:49;;;;;;;10.02;1.00;;;;;;;3.94;98.01;98510.03;5187894;28;20032;-81
2021/12/02 04:03:19;;;;;;;4.45;0.68;;;;;;;3.90;97.87;98496.41;5181919;28;20090;-82
2021/12/02 04:05:50;;;;;;;6.63;1.10;;;;;;;3.92;97.53;98496.34;5190104;28;20034;-81
2021/12/02 04:08:27;;;;;;;5.82;0.93;;;;;;;3.86;97.56;98502.59;5202215;28;20255;-81
2021/12/02 04:11:11;;;;;;;2.25;0.60;;;;;;;3.84;97.05;98509.56;5189325;28;20029;-82
2021/12/02 04:16:26;;;;;;;2.80;0.82;;;;;;;3.82;96.56;98524.28;5203322;28;20025;-79
2021/12/02 04:18:56;;;;;;;4.68;0.82;;;;;;;3.82;96.19;98532.03;5199995;28;20044;-82
2021/12/02 04:21:27;;;;;;;5.07;0.85;;;;;;;3.79;96.27;98536.50;5188406;28;20025;-81
2021/12/02 04:23:57;;;;;;;6.60;1.05;;;;;;;3.80;96.47;98527.84;5193380;28;20036;-79
2021/12/02 04:26:28;;;;;;;5.90;1.27;;;;;;;3.80;96.36;98533.81;5192439;28;20060;-80
2021/12/02 04:28:59;;;;;;;6.35;0.80;;;;;;;3.70;96.69;98553.19;5196030;28;20172;-82
2021/12/02 04:31:29;;;;;;;5.47;0.60;;;;;;;3.69;96.50;98548.94;5191943;28;20519;-82
2021/12/02 04:33:59;;;;;;;4.93;1.20;;;;;;;3.76;95.68;98563.28;5201638;28;20289;-79
2021/12/02 04:36:29;;;;;;;4.85;0.90;;;;;;;3.72;94.90;98555.72;5189071;28;20025;-79
2021/12/02 04:39:00;;;;;;;4.03;0.80;;;;;;;3.65;95.56;98562.84;5193278;28;20472;-80
2021/12/02 04:41:30;;;;;;;3.20;1.00;;;;;;;3.71;95.90;98565.22;5187547;28;20028;-80
2021/12/02 04:44:01;;;;;;;4.05;0.60;;;;;;;3.68;95.27;98570.50;5200683;28;20025;-81
2021/12/02 04:46:31;;;;;;;3.28;0.85;;;;;;;3.64;95.23;98579.25;5191829;28;20225;-81
2021/12/02 04:49:03;;;;;;;8.50;0.80;;;;;;;3.56;95.34;98582.22;5194551;28;20037;-80
2021/12/02 04:51:33;;;;;;;4.80;0.82;;;;;;;3.63;95.07;98581.91;5199462;28;20018;-80
2021/12/02 04:54:03;;;;;;;5.65;0.80;;;;;;;3.64;94.38;98593.91;5197283;28;20026;-81
2021/12/02 04:56:34;;;;;;;4.32;0.68;;;;;;;3.58;95.16;98598.50;5196898;28;20026;-81
2021/12/02 04:59:04;;;;;;;3.22;0.65;;;;;;;3.54;94.84;98596.94;5197010;28;20498;-80
2021/12/02 05:01:35;;;;;;;4.60;1.02;;;;;;;3.58;95.39;98608.81;5187991;28;20026;-80
2021/12/02 05:04:05;;;;;;;7.82;0.98;;;;;;;3.46;95.50;98615.31;5200641;28;20228;-81
2021/12/02 05:06:35;;;;;;;7.18;0.98;;;;;;;3.42;95.12;98618.91;5199915;28;20087;-82
2021/12/02 05:09:06;;;;;;;6.18;0.90;;;;;;;3.45;95.30;98623.09;5189412;28;20018;-81
2021/12/02 05:11:38;;;;;;;4.00;0.73;;;;;;;3.44;95.10;98624.84;5193691;28;20053;-82
2021/12/02 05:14:09;;;;;;;5.93;0.80;;;;;;;3.51;95.10;98631.44;5202218;28;20035;-80
2021/12/02 05:16:40;;;;;;;4.13;0.88;;;;;;;3.50;94.79;98626.34;5204109;28;20469;-81
2021/12/02 05:19:10;;;;;;;5.72;0.82;;;;;;;3.53;94.38;98619.31;5196079;28;20599;-82
2021/12/02 05:21:41;;;;;;;5.05;0.65;;;;;;;3.42;94.71;98630.97;5188763;28;20029;-79
2021/12/02 05:24:11;;;;;;;4.13;0.80;;;;;;;3.42;94.71;98633.53;5187936;28;20021;-79
2021/12/02 05:26:41;;;;;;;2.33;0.95;;;;;;;3.41;94.45;98627.56;5187579;28;20044;-79
2021/12/02 05:29:12;;;;;;;7.13;0.80;;;;;;;3.39;95.26;98624.16;5196442;28;20057;-80
2021/12/02 05:31:42;;;;;;;7.45;0.90;;;;;;;3.36;94.36;98632.03;5182924;28;20452;-80
2021/12/02 05:34:13;;;;;;;6.97;1.35;;;;;;;3.30;94.59;98640.00;5187075;28;20272;-82
2021/12/02 05:36:43;;;;;;;4.93;0.63;;;;;;;3.33;94.71;98644.22;5195073;28;20032;-80
2021/12/02 05:39:13;;;;;;;5.10;0.73;;;;;;;3.32;95.43;98637.34;5205305;28;20026;-78
2021/12/02 05:41:43;;;;;;;5.78;0.77;;;;;;;3.30;95.02;98646.91;5194414;28;20113;-78
2021/12/02 05:44:14;;;;;;;3.83;0.85;;;;;;;3.34;95.69;98645.91;5196883;28;20026;-80
2021/12/02 05:46:44;;;;;;;5.10;0.70;;;;;;;3.27;95.41;98644.44;5197187;28;20026;-81
2021/12/02 05:49:15;;;;;;;3.88;0.52;;;;;;;3.18;95.49;98655.13;5184138;28;20030;-81
2021/12/02 05:51:46;;;;;;;8.73;0.95;;;;;;;3.18;95.11;98662.84;5189725;28;20396;-81
2021/12/02 05:54:16;;;;;;;3.85;0.70;;;;;;;3.19;95.31;98656.78;5193917;28;20401;-79
2021/12/02 05:56:46;;;;;;;6.28;0.77;;;;;;;3.22;95.82;98665.25;5202699;28;20025;-80
2021/12/02 05:59:17;;;;;;;3.85;0.70;;;;;;;3.22;96.08;98667.81;5188082;28;20064;-82
2021/12/02 06:01:48;;;;;;;3.88;1.25;;;;;;;3.11;96.17;98675.13;5187611;28;20030;-82
2021/12/02 06:04:19;;;;;;;5.72;1.02;;;;;;;3.17;95.99;98671.50;5199448;28;20475;-81
2021/12/02 06:06:50;;;;;;;5.30;1.00;;;;;;;3.16;96.02;98685.28;5188784;28;20025;-81
2021/12/02 06:09:20;;;;;;;4.50;0.70;;;;;;;3.08;96.45;98684.72;5204487;28;20095;-79
2021/12/02 06:11:51;;;;;;;4.20;0.70;;;;;;;3.07;96.16;98689.06;5189556;28;20029;-80
2021/12/02 06:14:21;;;;;;;3.72;0.85;;;;;;;3.01;96.69;98691.00;5187704;28;20032;-82
2021/12/02 06:16:52;;;;;;;5.28;0.98;;;;;;;3.06;96.74;98694.25;5194415;28;20026;-81
2021/12/02 06:19:22;;;;;;;2.45;0.70;;;;;;;3.11;96.87;98700.09;5187930;28;20366;-83
2021/12/02 06:21:52;;;;;;;4.35;1.00;;;;;;;3.10;97.06;98711.28;5177630;28;20037;-82
2021/12/02 06:24:42;;;;;;;4.10;0.60;;;;;;;3.22;96.59;98722.00;5189610;28;20034;-81
2021/12/02 06:27:14;;;;;;;5.13;0.95;;;;;;;3.30;96.55;98726.91;5200495;28;20022;-83
2021/12/02 06:29:46;;;;;;;7.25;0.85;;;;;;;3.24;96.19;98725.41;5187083;28;20037;-81
2021/12/02 06:32:16;;;;;;;5.65;0.85;;;;;;;3.19;96.91;98722.13;5203174;28;20068;-82
2021/12/02 06:34:46;;;;;;;5.22;0.95;;;;;;;3.19;97.03;98723.88;5185677;28;20049;-83
2021/12/02 06:37:16;;;;;;;4.90;0.80;;;;;;;3.08;97.29;98726.00;5183689;28;20022;-83
2021/12/02 06:39:47;;;;;;;9.85;1.48;;;;;;;3.04;96.78;98729.59;5188600;28;20549;-83
2021/12/02 06:42:17;;;;;;;5.78;1.00;;;;;;;3.15;97.32;98735.19;5188831;28;20055;-81
2021/12/02 06:44:47;;;;;;;6.90;0.82;;;;;;;3.15;97.92;98748.94;5187434;28;20041;-82
2021/12/02 06:47:20;;;;;;;3.95;0.70;;;;;;;3.16;97.84;98749.81;5186831;28;20026;-80
2021/12/02 06:49:50;;;;;;;8.82;1.00;;;;;;;3.27;97.65;98752.81;5183532;28;20030;-82
2021/12/02 06:52:23;;;;;;;3.90;0.75;;;;;;;3.28;97.37;98765.69;5193851;28;20498;-81
2021/12/02 06:54:54;;;;;;;5.60;0.85;;;;;;;3.41;97.07;98766.09;5185622;28;20105;-82
2021/12/02 06:57:26;;;;;;;5.47;0.60;;;;;;;3.45;97.56;98777.97;5201995;28;20029;-83
2021/12/02 06:59:59;;;;;;;4.18;0.88;;;;;;;3.40;97.37;98782.47;5190522;28;20034;-82
2021/12/02 07:02:30;;;;;;;6.47;1.10;;;;;;;3.44;98.62;98781.47;5187336;28;20063;-83
2021/12/02 07:05:01;;;;;;;5.50;0.80;;;;;;;3.44;98.77;98781.47;5193927;28;20364;-83
2021/12/02 07:07:36;;;;;;;6.18;0.73;;;;;;;3.53;98.86;98789.72;5181424;28;20033;-82
2021/12/02 07:10:13;;;;;;;7.63;1.00;;;;;;;3.54;98.82;98796.56;5177348;28;20109;-81
2021/12/02 07:12:46;;;;;;;5.15;1.17;;;;;;;3.53;98.20;98788.88;5180344;28;20033;-82
2021/12/02 07:15:20;;;;;;;8.88;1.20;;;;;;;3.44;98.30;98792.66;5201520;28;20510;-82
2021/12/02 07:17:55;;;;;;;10.38;1.25;;;;;;;3.45;98.59;98794.31;5189359;28;20075;-81
2021/12/02 07:20:29;;;;;;;6.80;1.08;;;;;;;3.50;98.86;98807.06;5188655;28;20025;-81
2021/12/02 07:23:00;;;;;;;5.05;0.90;;;;;;;3.39;99.46;98807.44;5191716;28;20105;-83
2021/12/02 07:25:31;;;;;;;6.45;0.95;;;;;;;3.37;99.80;98811.81;5188950;28;20328;-80
2021/12/02 07:28:02;;;;;;;4.07;0.85;;;;;;;3.41;99.71;98812.56;5185890;28;20028;-80
2021/12/02 07:30:32;;;;;;;6.35;1.08;;;;;;;3.31;99.88;98822.34;5184510;28;20034;-83
2021/12/02 07:33:04;;;;;;;10.98;1.27;;;;;;;3.30;99.31;98836.16;5194178;28;20093;-82
2021/12/02 07:35:34;;;;;;;2.58;0.82;;;;;;;3.21;99.50;98820.97;5198579;28;20072;-81
2021/12/02 07:38:05;;;;;;;6.07;1.10;;;;;;;3.23;99.16;98826.91;5188678;28;20049;-81
2021/12/02 07:40:39;;;;;;;6.57;1.10;;;;;;;3.35;99.43;98833.44;5186364;28;20132;-82
2021/12/02 07:43:10;;;;;;;7.18;1.25;;;;;;;3.28;99.67;98831.94;5195170;28;20102;-82
2021/12/02 07:45:40;;;;;;;5.55;1.20;;;;;;;3.31;99.35;98839.56;5188162;28;20535;-82
2021/12/02 07:48:14;;;;;;;6.53;1.10;;;;;;;3.23;99.23;98844.16;5189654;28;20053;-82
2021/12/02 07:50:44;;;;;;;7.05;1.27;;;;;;;3.33;98.84;98851.53;5226358;22;20055;-80
2021/12/02 07:53:16;;;;;;;7.65;1.30;;;;;;;3.37;98.90;98847.13;5261134;28;20051;-80
2021/12/02 07:55:50;;;;;;;5.75;1.30;;;;;;;3.40;98.61;98854.75;5245469;28;20028;-79
2021/12/02 07:58:23;;;;;;;3.70;1.10;;;;;;;3.33;98.31;98867.03;5246846;28;20033;-79
2021/12/02 08:00:58;;;;;;;5.20;1.25;;;;;;;3.49;97.51;98869.91;5244190;28;20283;-80
2021/12/02 08:03:29;;;;;;;;;;;;;;;3.44;97.07;98869.22;5231561;28;20025;-79
2021/12/02 08:06:00;;;;;;;9.13;1.40;;;;;;;3.47;97.19;98874.28;5232499;28;19919;-78
2021/12/02 08:08:30;;;;;;;7.63;1.33;;;;;;;3.58;96.25;98872.19;5229687;28;20382;-80
2021/12/02 08:11:00;;;;;;;5.68;1.48;;;;;;;3.70;96.16;98878.59;5231805;28;20024;-78
2021/12/02 08:13:31;;;;;;;4.72;1.20;;;;;;;3.81;95.63;98873.88;5229260;28;20024;-79
2021/12/02 08:16:04;;;;;;;8.18;1.30;;;;;;;3.82;95.22;98880.72;5227988;28;20347;-79
2021/12/02 08:18:35;;;;;;;7.68;1.20;;;;;;;3.75;95.34;98876.69;5205432;28;20035;-78
2021/12/02 08:21:05;;;;;;;4.60;1.30;;;;;;;3.71;95.14;98890.63;5226232;28;20473;-80
2021/12/02 08:23:36;;;;;;;6.75;1.73;;;;;;;3.78;95.65;98892.09;5225945;28;20474;-78
2021/12/02 08:26:06;;;;;;;3.75;1.33;;;;;;;3.90;95.53;98895.97;5226837;28;20031;-79
2021/12/02 08:28:36;;;;;;;3.75;1.52;;;;;;;3.98;93.07;98889.63;5223857;28;20250;-78
2021/12/02 08:31:07;;;;;;;4.28;1.25;;;;;;;4.05;93.63;98891.09;5225996;28;20486;-80
2021/12/02 08:33:37;;;;;;;4.38;1.70;;;;;;;4.06;92.65;98903.13;5225490;28;20437;-79
2021/12/02 08:36:08;;;;;;;6.38;1.48;;;;;;;4.20;91.73;98912.94;5223755;28;20300;-79
2021/12/02 08:38:38;;;;;;;5.70;1.63;;;;;;;4.11;92.28;98910.72;5223699;28;20069;-81
2021/12/02 08:41:11;;;;;;;6.30;1.70;;;;;;;4.08;93.40;98906.50;5224331;28;20463;-79
2021/12/02 08:43:41;;;;;;;8.27;1.70;;;;;;;3.99;94.43;98911.97;5230255;28;20072;-78
2021/12/02 08:46:11;;;;;;;3.78;1.40;;;;;;;4.26;93.57;98916.16;5235886;28;20058;-79
2021/12/02 08:48:42;;;;;;;3.47;1.42;;;;;;;4.35;93.25;98921.00;5238116;28;20386;-78
2021/12/02 08:51:13;;;;;;;4.70;1.45;;;;;;;4.20;94.09;98911.22;5225720;28;20496;-79
2021/12/02 08:53:43;;;;;;;9.68;1.85;;;;;;;4.19;94.68;98919.88;5222966;28;20040;-79
2021/12/02 08:56:13;;;;;;;9.50;2.17;;;;;;;4.11;95.42;98921.88;5235522;28;20397;-79
2021/12/02 08:58:44;;;;;;;4.80;1.70;;;;;;;4.19;94.96;98921.59;5232256;28;20037;-80
2021/12/02 09:01:14;;;;;;;4.78;1.75;;;;;;;4.27;95.21;98929.94;5228422;28;20489;-78
2021/12/02 09:03:44;;;;;;;4.90;1.50;;;;;;;4.43;94.35;98933.66;5227434;28;20033;-78
2021/12/02 09:06:21;;;;;;;5.55;1.80;;;;;;;4.43;94.70;98939.66;5211379;28;20441;-80
2021/12/02 09:08:57;;;;;;;6.93;2.22;;;;;;;4.56;95.14;98951.22;5233344;28;20033;-80
2021/12/02 09:11:30;;;;;;;4.82;1.40;;;;;;;4.49;94.85;98944.56;5231138;28;20025;-80
2021/12/02 09:14:04;;;;;;;7.78;2.53;;;;;;;4.40;94.85;98950.09;5218744;28;20024;-80
2021/12/02 09:16:36;;;;;;;5.70;1.95;;;;;;;4.71;94.16;98958.41;5232558;28;20067;-80
2021/12/02 09:19:06;;;;;;;5.32;2.00;;;;;;;4.68;93.36;98966.28;5235098;28;20025;-80
2021/12/02 09:21:37;;;;;;;9.35;2.30;;;;;;;4.35;93.78;98962.38;5239526;28;20409;-79
2021/12/02 09:24:07;;;;;;;9.15;2.10;;;;;;;4.31;95.49;98963.34;5226966;28;20099;-79
2021/12/02 09:26:38;;;;;;;6.57;1.88;;;;;;;4.37;95.08;98965.75;5232571;28;20033;-80
2021/12/02 09:29:08;;;;;;;6.70;2.05;;;;;;;4.59;94.87;98965.75;5235742;28;20050;-79
2021/12/02 09:31:39;;;;;;;9.77;2.00;;;;;;;4.41;95.40;98972.47;5233080;28;20078;-79
2021/12/02 09:34:09;;;;;;;7.13;2.15;;;;;;;4.77;93.78;98970.28;5236059;28;20044;-79
2021/12/02 09:36:40;;;;;;;5.22;2.00;;;;;;;4.76;94.02;98978.91;5223078;28;20025;-79
2021/12/02 09:39:11;;;;;;;4.03;1.77;;;;;;;4.81;94.43;98972.66;5235343;28;20043;-79
2021/12/02 09:41:44;;;;;;;4.28;1.73;;;;;;;4.64;95.64;98974.22;5232274;28;20044;-79
2021/12/02 09:44:15;;;;;;;10.95;2.20;;;;;;;4.55;96.21;98965.06;5234060;28;20024;-80
2021/12/02 09:46:45;;;;;;;8.20;2.17;;;;;;;4.59;95.74;98969.22;5239507;28;20367;-79
2021/12/02 09:49:16;;;;;;;6.45;2.00;;;;;;;4.78;94.49;98967.59;5240081;28;20128;-78
2021/12/02 09:57:03;;;;;;;6.82;1.65;;;;;;;4.85;94.53;98976.84;5233921;28;20406;-80
2021/12/02 10:02:18;;;;;;;9.73;2.40;;;;;;;4.78;94.88;98975.38;5229453;28;20091;-79
2021/12/02 10:04:53;;;;;;;5.32;1.88;;;;;;;4.82;94.45;98976.94;5233519;28;20031;-80
2021/12/02 10:07:39;;;;;;;3.78;1.67;;;;;;;4.66;94.44;98975.81;5224717;28;20021;-79
2021/12/02 10:10:30;;;;;;;5.15;1.80;;;;;;;4.82;93.96;98979.53;5228428;28;20056;-80
2021/12/02 10:13:27;;;;;;;6.65;2.13;;;;;;;4.76;94.15;98973.72;5233111;28;20029;-79
2021/12/02 10:16:30;;;;;;;9.20;2.20;;;;;;;4.35;94.96;98966.69;5217785;28;20029;-78
2021/12/02 10:19:12;;;;;;;7.70;2.22;;;;;;;4.40;95.02;98970.78;5228111;28;20029;-80
2021/12/02 10:21:56;;;;;;;8.32;2.35;;;;;;;4.44;94.85;98971.53;5230826;28;20022;-80
2021/12/02 10:24:29;;;;;;;4.97;1.60;;;;;;;4.24;94.43;98985.16;5223645;28;20082;-80
2021/12/02 10:27:04;;;;;;;5.07;1.70;;;;;;;4.28;94.84;98984.16;5231920;28;20059;-79
2021/12/02 10:29:38;;;;;;;5.80;2.10;;;;;;;4.10;96.18;98989.97;5227031;28;20032;-79
2021/12/02 10:32:21;;;;;;;10.63;2.40;;;;;;;4.42;95.46;98983.66;5208432;28;20549;-79
2021/12/02 10:34:56;;;;;;;8.93;1.83;;;;;;;4.46;93.11;98985.25;5230784;28;20421;-79
2021/12/02 10:37:35;;;;;;;6.30;1.75;;;;;;;4.55;94.17;98984.91;5230295;28;20028;-79
2021/12/02 10:40:14;;;;;;;7.20;2.25;;;;;;;4.62;96.09;98986.38;5230191;28;20482;-79
2021/12/02 10:42:47;;;;;;;9.35;2.65;;;;;;;4.53;96.80;98987.56;5228335;28;20260;-79
2021/12/02 10:45:26;;;;;;;7.18;2.40;;;;;;;4.53;97.06;98987.56;5227191;28;20060;-80
2021/12/02 10:47:57;;;;;;;9.95;2.83;;;;;;;4.52;98.26;98990.19;5229106;28;20488;-79
2021/12/02 10:50:36;;;;;;;9.52;2.70;;;;;;;4.54;98.45;98993.56;5231176;28;20027;-78
2021/12/02 10:53:06;;;;;;;7.60;2.78;;;;;;;4.48;100.00;98989.44;5224715;28;20036;-78
2021/12/02 10:55:37;;;;;;;5.28;2.00;;;;;;;4.61;99.81;98995.84;5225059;28;20374;-80
2021/12/02 10:58:07;;;;;;;7.82;2.45;;;;;;;4.37;100.00;98995.91;5225288;28;20040;-79
2021/12/02 11:00:42;;;;;;;5.43;2.40;;;;;;;4.54;100.00;98996.13;5229986;28;20032;-79
2021/12/02 11:03:14;;;;;;;13.60;2.85;;;;;;;4.54;100.00;98991.81;5227640;28;20614;-78
2021/12/02 11:05:47;;;;;;;6.07;2.53;;;;;;;4.68;100.00;99002.50;5231336;28;20044;-79
2021/12/02 11:08:18;;;;;;;8.23;2.50;;;;;;;4.57;100.00;98994.28;5225182;28;20025;-80
2021/12/02 11:10:51;;;;;;;6.38;2.38;;;;;;;4.64;100.00;99000.91;5226770;28;20025;-79
2021/12/02 11:13:24;;;;;;;9.63;2.65;;;;;;;5.01;100.00;99006.38;5232092;28;20359;-77
2021/12/02 11:15:55;;;;;;;7.53;2.55;;;;;;;4.92;99.16;99006.75;5226878;28;20064;-79
2021/12/02 11:18:28;;;;;;;9.10;3.10;;;;;;;4.82;100.00;99005.41;5220615;28;20052;-79
2021/12/02 11:20:59;;;;;;;7.45;2.70;;;;;;;5.03;100.00;99009.78;5221972;28;20052;-79
2021/12/02 11:23:45;;;;;;;6.15;2.72;;;;;;;5.15;99.01;99008.47;5226985;28;20605;-79
2021/12/02 11:26:18;;;;;;;8.32;3.17;;;;;;;5.25;98.77;99004.59;5228657;28;20077;-80
2021/12/02 11:28:48;;;;;;;10.23;3.00;;;;;;;5.31;96.83;99018.16;5234656;28;20502;-80
2021/12/02 11:31:21;;;;;;;8.75;2.72;;;;;;;5.35;95.78;99006.75;5237055;28;20024;-78
2021/12/02 11:33:52;;;;;;;8.30;2.90;;;;;;;5.57;96.19;99008.44;5238023;28;20024;-79
2021/12/02 11:36:26;;;;;;;8.73;2.63;;;;;;;5.56;95.66;99006.75;5232288;28;20033;-80
2021/12/02 11:38:59;;;;;;;7.70;2.50;;;;;;;5.80;92.21;99015.31;5233347;28;20032;-80
2021/12/02 11:41:31;;;;;;;5.97;2.30;;;;;;;5.75;92.58;99017.22;5231463;28;20487;-80
2021/12/02 11:44:02;;;;;;;6.57;2.42;;;;;;;5.56;92.74;99018.88;5233640;28;20040;-80
2021/12/02 11:46:33;;;;;;;4.95;1.55;;;;;;;5.29;90.67;99022.53;5238421;28;20064;-80
2021/12/02 11:49:04;;;;;;;4.00;1.30;;;;;;;4.95;84.81;99027.34;5242357;28;20533;-78
2021/12/02 11:51:35;;;;;;;7.45;1.33;;;;;;;4.96;84.66;99033.38;5236571;28;20020;-78
2021/12/02 11:54:05;;;;;;;4.47;1.10;;;;;;;5.01;83.46;99034.84;5239635;28;20036;-80
2021/12/02 11:56:35;;;;;;;4.63;1.20;;;;;;;4.91;83.18;99038.72;5232889;28;20040;-80
2021/12/02 11:59:09;;;;;;;5.95;1.00;;;;;;;4.78;83.37;99036.66;5229619;28;20116;-80
2021/12/02 12:01:42;;;;;;;4.55;1.10;;;;;;;4.75;83.38;99041.91;5219594;28;20024;-79
2021/12/02 12:04:14;;;;;;;2.42;1.17;;;;;;;4.77;84.33;99042.72;5231551;28;20387;-80
2021/12/02 12:07:07;;;;;;;3.70;0.98;;;;;;;4.84;85.23;99039.81;5211167;28;20025;-81
2021/12/02 12:09:38;;;;;;;5.53;1.33;;;;;;;4.77;84.53;99046.13;5232460;28;20032;-79
2021/12/02 12:12:10;;;;;;;5.30;1.27;;;;;;;4.69;84.58;99044.72;5232548;28;20025;-79
2021/12/02 12:14:42;;;;;;;3.35;1.20;;;;;;;4.58;85.06;99052.03;5219558;28;20405;-79
2021/12/02 12:17:17;;;;;;;5.72;1.70;;;;;;;4.70;86.10;99052.44;5242137;28;20029;-79
2021/12/02 12:19:52;;;;;;;10.18;1.83;;;;;;;4.77;86.28;99053.91;5225003;28;20411;-81
2021/12/02 12:22:30;;;;;;;4.90;1.23;;;;;;;4.81;85.80;99055.47;5229127;28;20028;-80
2021/12/02 12:25:06;;;;;;;6.20;1.30;;;;;;;4.77;86.55;99059.06;5231078;28;20039;-79
2021/12/02 12:27:39;;;;;;;3.45;1.27;;;;;;;4.75;86.96;99060.88;5229618;28;20029;-80
2021/12/02 12:36:16;;;;;;;6.03;2.03;;;;;;;5.03;86.15;99058.97;5230810;28;20275;-78
2021/12/02 12:38:30;;;;;;;4.65;1.50;;;;;;;5.03;85.01;99063.28;5215773;28;20300;-79
2021/12/02 12:41:12;;;;;;;4.95;1.85;;;;;;;5.26;84.95;99068.41;5231978;28;20552;-79
2021/12/02 12:43:54;;;;;;;4.25;2.05;;;;;;;5.30;84.51;99062.25;5227857;28;20041;-79
2021/12/02 12:46:26;;;;;;;4.65;1.10;;;;;;;5.23;81.98;99064.22;5217119;28;20028;-78